Capps Creek, Missouri
Current Conditions -  °F | °C
As of 9:55 PM on Thursday 18 Dec 2014 (Local Time) from KHFJ Reporting Station
Haze Haze  
Wind Chill: 36°   Ceiling: 200
Heat Index: 36°   Visibility: 0.75mi
Dew Point: 36°   Wind: 3mph
Humidity: 100%   Direction: 30°NNE
Pressure: 30.2"   Gusts: NA
Location:  37.2308°N, 93.8521°W
Report Text: KHFJ 190355Z AUTO 03003KT 3/4SM BR OVC002 02/02 A3020 RMK AO2
Loading
Personal Weather Stations






























Interactive Weather Map New forecast layout! Learn more

10-Day Weather Forecast

Advertisements
Track Severe Weather on mobile